sensor_id;sensor_type;location;lat;lon;timestamp;pressure;altitude;pressure_sealevel;temperature;humidity
25855;BME280;13680;49.936;11.344;2023-03-14T00:01:15;94894.13;;;10.96;91.09
25855;BME280;13680;49.936;11.344;2023-03-14T00:03:41;94891.25;;;10.89;91.02
25855;BME280;13680;49.936;11.344;2023-03-14T00:06:07;94885.88;;;10.89;91.11
25855;BME280;13680;49.936;11.344;2023-03-14T00:08:33;94884.59;;;10.83;91.72
25855;BME280;13680;49.936;11.344;2023-03-14T00:11:04;94882.50;;;10.76;91.64
25855;BME280;13680;49.936;11.344;2023-03-14T00:13:29;94886.56;;;10.70;92.55
25855;BME280;13680;49.936;11.344;2023-03-14T00:15:55;94901.16;;;10.69;92.43
25855;BME280;13680;49.936;11.344;2023-03-14T00:18:20;94903.44;;;10.55;93.54
25855;BME280;13680;49.936;11.344;2023-03-14T00:20:45;94923.88;;;10.43;94.78
25855;BME280;13680;49.936;11.344;2023-03-14T00:23:11;94931.03;;;10.68;92.72
25855;BME280;13680;49.936;11.344;2023-03-14T00:25:36;94935.28;;;10.69;92.24
25855;BME280;13680;49.936;11.344;2023-03-14T00:28:01;94945.13;;;10.77;91.94
25855;BME280;13680;49.936;11.344;2023-03-14T00:30:26;94940.69;;;10.85;90.83
25855;BME280;13680;49.936;11.344;2023-03-14T00:32:52;94941.38;;;10.81;90.54
25855;BME280;13680;49.936;11.344;2023-03-14T00:35:17;94938.28;;;10.79;90.66
25855;BME280;13680;49.936;11.344;2023-03-14T00:37:42;94950.34;;;10.86;90.52
25855;BME280;13680;49.936;11.344;2023-03-14T00:40:08;94941.56;;;10.89;89.84
25855;BME280;13680;49.936;11.344;2023-03-14T00:42:34;94958.47;;;10.89;90.00
25855;BME280;13680;49.936;11.344;2023-03-14T00:45:00;94953.09;;;10.89;89.51
25855;BME280;13680;49.936;11.344;2023-03-14T00:47:25;94956.28;;;10.79;89.31
25855;BME280;13680;49.936;11.344;2023-03-14T00:49:50;94954.50;;;10.83;89.42
25855;BME280;13680;49.936;11.344;2023-03-14T00:52:16;94968.56;;;10.92;88.87
25855;BME280;13680;49.936;11.344;2023-03-14T00:54:41;94972.66;;;10.74;89.18
25855;BME280;13680;49.936;11.344;2023-03-14T00:57:07;94978.31;;;10.69;90.35
25855;BME280;13680;49.936;11.344;2023-03-14T00:59:33;94976.59;;;10.48;90.53
25855;BME280;13680;49.936;11.344;2023-03-14T01:01:58;94969.53;;;10.03;93.29
25855;BME280;13680;49.936;11.344;2023-03-14T01:04:23;94968.44;;;10.32;92.98
25855;BME280;13680;49.936;11.344;2023-03-14T01:06:49;94971.69;;;10.50;91.00
25855;BME280;13680;49.936;11.344;2023-03-14T01:09:14;94964.69;;;10.61;89.68
25855;BME280;13680;49.936;11.344;2023-03-14T01:11:41;94960.19;;;10.66;89.45
25855;BME280;13680;49.936;11.344;2023-03-14T01:14:07;94963.75;;;10.41;90.72
25855;BME280;13680;49.936;11.344;2023-03-14T01:16:33;94957.69;;;10.44;90.42
25855;BME280;13680;49.936;11.344;2023-03-14T01:18:59;94958.75;;;10.40;90.19
25855;BME280;13680;49.936;11.344;2023-03-14T01:21:30;94955.72;;;10.57;89.63
25855;BME280;13680;49.936;11.344;2023-03-14T01:23:57;94955.06;;;10.60;88.98
25855;BME280;13680;49.936;11.344;2023-03-14T01:26:25;94952.16;;;10.37;90.07
25855;BME280;13680;49.936;11.344;2023-03-14T01:28:53;94944.25;;;10.44;89.55
25855;BME280;13680;49.936;11.344;2023-03-14T01:31:19;94956.94;;;10.31;90.96
25855;BME280;13680;49.936;11.344;2023-03-14T01:33:45;94946.28;;;10.47;89.10
25855;BME280;13680;49.936;11.344;2023-03-14T01:36:11;94953.13;;;10.32;89.78
25855;BME280;13680;49.936;11.344;2023-03-14T01:38:38;94960.22;;;10.37;89.69
25855;BME280;13680;49.936;11.344;2023-03-14T01:41:04;94962.28;;;10.44;88.67
25855;BME280;13680;49.936;11.344;2023-03-14T01:43:30;94950.72;;;10.15;91.33
25855;BME280;13680;49.936;11.344;2023-03-14T01:51:02;94915.38;;;10.13;90.31
25855;BME280;13680;49.936;11.344;2023-03-14T01:53:28;94906.63;;;10.16;89.32
25855;BME280;13680;49.936;11.344;2023-03-14T01:55:55;94899.06;;;10.34;88.38
25855;BME280;13680;49.936;11.344;2023-03-14T01:58:23;94884.06;;;10.33;87.91
25855;BME280;13680;49.936;11.344;2023-03-14T02:00:50;94900.06;;;10.29;87.46
25855;BME280;13680;49.936;11.344;2023-03-14T02:03:16;94898.94;;;10.30;87.73
25855;BME280;13680;49.936;11.344;2023-03-14T02:05:47;94903.50;;;10.14;88.75
25855;BME280;13680;49.936;11.344;2023-03-14T02:08:18;94898.59;;;10.32;87.74
25855;BME280;13680;49.936;11.344;2023-03-14T02:10:47;94887.09;;;9.75;90.55
25855;BME280;13680;49.936;11.344;2023-03-14T02:13:14;94900.84;;;9.73;92.23
25855;BME280;13680;49.936;11.344;2023-03-14T02:15:40;94898.34;;;10.21;89.40
25855;BME280;13680;49.936;11.344;2023-03-14T02:18:06;94893.56;;;10.14;89.83
25855;BME280;13680;49.936;11.344;2023-03-14T02:20:47;94893.38;;;9.95;89.71
25855;BME280;13680;49.936;11.344;2023-03-14T02:23:16;94896.25;;;10.14;89.81
25855;BME280;13680;49.936;11.344;2023-03-14T02:25:55;94900.97;;;10.05;90.15
25855;BME280;13680;49.936;11.344;2023-03-14T02:28:26;94901.25;;;10.16;89.19
25855;BME280;13680;49.936;11.344;2023-03-14T02:30:51;94897.47;;;10.33;88.92
25855;BME280;13680;49.936;11.344;2023-03-14T02:33:19;94903.22;;;10.31;88.38
25855;BME280;13680;49.936;11.344;2023-03-14T02:35:59;94896.94;;;10.40;87.58
25855;BME280;13680;49.936;11.344;2023-03-14T02:41:00;94881.38;;;10.33;88.80
25855;BME280;13680;49.936;11.344;2023-03-14T02:43:25;94870.06;;;10.40;88.26
25855;BME280;13680;49.936;11.344;2023-03-14T02:45:51;94859.88;;;10.33;88.46
25855;BME280;13680;49.936;11.344;2023-03-14T02:48:28;94861.31;;;10.43;87.86
25855;BME280;13680;49.936;11.344;2023-03-14T02:50:57;94858.38;;;10.48;87.16
25855;BME280;13680;49.936;11.344;2023-03-14T02:53:31;94849.44;;;10.44;87.27
25855;BME280;13680;49.936;11.344;2023-03-14T02:55:58;94841.19;;;10.37;88.06
25855;BME280;13680;49.936;11.344;2023-03-14T02:58:23;94844.69;;;10.37;88.32
25855;BME280;13680;49.936;11.344;2023-03-14T03:00:49;94842.78;;;10.38;87.54
25855;BME280;13680;49.936;11.344;2023-03-14T03:03:14;94833.59;;;10.39;87.71
25855;BME280;13680;49.936;11.344;2023-03-14T03:05:40;94836.16;;;10.35;87.33
25855;BME280;13680;49.936;11.344;2023-03-14T03:08:05;94839.63;;;10.36;87.67
25855;BME280;13680;49.936;11.344;2023-03-14T03:10:31;94840.44;;;10.36;88.39
25855;BME280;13680;49.936;11.344;2023-03-14T03:12:56;94837.06;;;10.27;88.23
25855;BME280;13680;49.936;11.344;2023-03-14T03:15:22;94837.84;;;10.40;88.32
25855;BME280;13680;49.936;11.344;2023-03-14T03:17:48;94827.41;;;10.38;88.25
25855;BME280;13680;49.936;11.344;2023-03-14T03:20:13;94833.88;;;10.21;88.96
25855;BME280;13680;49.936;11.344;2023-03-14T03:22:39;94844.09;;;10.31;88.89
25855;BME280;13680;49.936;11.344;2023-03-14T03:25:05;94838.75;;;10.31;88.39
25855;BME280;13680;49.936;11.344;2023-03-14T03:27:33;94842.97;;;10.45;88.06
25855;BME280;13680;49.936;11.344;2023-03-14T03:29:59;94839.13;;;10.46;87.83
25855;BME280;13680;49.936;11.344;2023-03-14T03:32:25;94844.84;;;10.44;87.68
25855;BME280;13680;49.936;11.344;2023-03-14T03:34:50;94838.88;;;10.51;87.65
25855;BME280;13680;49.936;11.344;2023-03-14T03:37:15;94842.94;;;10.16;89.02
25855;BME280;13680;49.936;11.344;2023-03-14T03:39:41;94844.47;;;10.30;88.55
25855;BME280;13680;49.936;11.344;2023-03-14T03:42:06;94845.81;;;10.36;88.82
25855;BME280;13680;49.936;11.344;2023-03-14T03:44:32;94828.97;;;10.39;88.60
25855;BME280;13680;49.936;11.344;2023-03-14T03:46:57;94821.19;;;10.50;87.81
25855;BME280;13680;49.936;11.344;2023-03-14T03:49:22;94826.13;;;10.48;87.32
25855;BME280;13680;49.936;11.344;2023-03-14T03:51:47;94820.06;;;10.51;87.13
25855;BME280;13680;49.936;11.344;2023-03-14T03:54:13;94824.56;;;10.47;87.60
25855;BME280;13680;49.936;11.344;2023-03-14T03:56:38;94819.09;;;10.43;87.73
25855;BME280;13680;49.936;11.344;2023-03-14T03:59:03;94814.44;;;10.40;87.87
25855;BME280;13680;49.936;11.344;2023-03-14T04:01:29;94831.56;;;10.36;88.46
25855;BME280;13680;49.936;11.344;2023-03-14T04:03:54;94828.72;;;10.44;88.09
25855;BME280;13680;49.936;11.344;2023-03-14T04:06:19;94815.47;;;9.91;91.02
25855;BME280;13680;49.936;11.344;2023-03-14T04:08:45;94816.72;;;10.26;89.23
25855;BME280;13680;49.936;11.344;2023-03-14T04:11:10;94828.63;;;10.41;88.51
25855;BME280;13680;49.936;11.344;2023-03-14T04:13:36;94816.50;;;10.47;88.09
25855;BME280;13680;49.936;11.344;2023-03-14T04:16:01;94814.63;;;10.47;87.21
25855;BME280;13680;49.936;11.344;2023-03-14T04:18:27;94814.63;;;10.47;86.86
25855;BME280;13680;49.936;11.344;2023-03-14T04:20:53;94808.31;;;10.27;88.24
25855;BME280;13680;49.936;11.344;2023-03-14T04:23:19;94815.00;;;10.34;88.17
25855;BME280;13680;49.936;11.344;2023-03-14T04:25:45;94804.44;;;10.41;88.11
25855;BME280;13680;49.936;11.344;2023-03-14T04:28:10;94795.28;;;10.42;88.31
25855;BME280;13680;49.936;11.344;2023-03-14T04:30:35;94797.44;;;10.08;89.64
25855;BME280;13680;49.936;11.344;2023-03-14T04:33:01;94770.09;;;10.34;88.49
25855;BME280;13680;49.936;11.344;2023-03-14T04:35:26;94774.53;;;10.26;88.64
25855;BME280;13680;49.936;11.344;2023-03-14T04:37:52;94764.81;;;10.06;90.18
25855;BME280;13680;49.936;11.344;2023-03-14T04:40:18;94775.00;;;10.00;90.43
25855;BME280;13680;49.936;11.344;2023-03-14T04:42:43;94771.59;;;10.15;89.33
25855;BME280;13680;49.936;11.344;2023-03-14T04:45:09;94772.59;;;10.27;88.53
25855;BME280;13680;49.936;11.344;2023-03-14T04:47:34;94765.63;;;10.38;87.03
25855;BME280;13680;49.936;11.344;2023-03-14T04:50:00;94751.88;;;10.40;86.90
25855;BME280;13680;49.936;11.344;2023-03-14T04:52:25;94748.19;;;10.32;87.06
25855;BME280;13680;49.936;11.344;2023-03-14T04:54:51;94746.72;;;10.35;86.78
25855;BME280;13680;49.936;11.344;2023-03-14T04:57:16;94729.22;;;10.41;86.45
25855;BME280;13680;49.936;11.344;2023-03-14T04:59:41;94723.59;;;10.30;86.64
25855;BME280;13680;49.936;11.344;2023-03-14T05:02:07;94743.16;;;10.30;86.60
25855;BME280;13680;49.936;11.344;2023-03-14T05:04:32;94737.72;;;10.43;85.73
25855;BME280;13680;49.936;11.344;2023-03-14T05:06:59;94736.31;;;10.33;85.85
25855;BME280;13680;49.936;11.344;2023-03-14T05:09:24;94733.97;;;10.31;86.16
25855;BME280;13680;49.936;11.344;2023-03-14T05:11:50;94728.63;;;10.15;86.04
25855;BME280;13680;49.936;11.344;2023-03-14T05:14:15;94731.56;;;10.10;87.38
25855;BME280;13680;49.936;11.344;2023-03-14T05:16:40;94731.78;;;10.05;87.53
25855;BME280;13680;49.936;11.344;2023-03-14T05:19:06;94737.31;;;9.80;88.69
25855;BME280;13680;49.936;11.344;2023-03-14T05:21:31;94735.38;;;10.09;87.62
25855;BME280;13680;49.936;11.344;2023-03-14T05:23:56;94741.41;;;10.06;87.65
25855;BME280;13680;49.936;11.344;2023-03-14T05:26:22;94741.00;;;10.20;87.22
25855;BME280;13680;49.936;11.344;2023-03-14T05:28:48;94728.59;;;10.31;86.45
25855;BME280;13680;49.936;11.344;2023-03-14T05:31:13;94731.28;;;10.31;86.05
25855;BME280;13680;49.936;11.344;2023-03-14T05:33:39;94725.91;;;10.31;86.04
25855;BME280;13680;49.936;11.344;2023-03-14T05:36:05;94725.06;;;9.95;87.84
25855;BME280;13680;49.936;11.344;2023-03-14T05:38:30;94739.88;;;10.21;86.87
25855;BME280;13680;49.936;11.344;2023-03-14T05:40:56;94732.81;;;9.85;88.46
25855;BME280;13680;49.936;11.344;2023-03-14T05:43:21;94726.25;;;10.14;87.02
25855;BME280;13680;49.936;11.344;2023-03-14T05:45:46;94729.47;;;9.88;87.71
25855;BME280;13680;49.936;11.344;2023-03-14T05:48:12;94729.41;;;9.72;88.55
25855;BME280;13680;49.936;11.344;2023-03-14T05:50:37;94726.56;;;9.64;89.80
25855;BME280;13680;49.936;11.344;2023-03-14T05:53:02;94718.72;;;10.04;87.15
25855;BME280;13680;49.936;11.344;2023-03-14T05:55:27;94713.28;;;10.16;86.61
25855;BME280;13680;49.936;11.344;2023-03-14T05:57:53;94712.69;;;10.07;86.72
25855;BME280;13680;49.936;11.344;2023-03-14T06:00:19;94701.69;;;10.12;86.38
25855;BME280;13680;49.936;11.344;2023-03-14T06:02:44;94704.63;;;10.07;86.26
25855;BME280;13680;49.936;11.344;2023-03-14T06:05:10;94701.41;;;10.17;85.70
25855;BME280;13680;49.936;11.344;2023-03-14T06:07:35;94695.34;;;10.20;85.64
25855;BME280;13680;49.936;11.344;2023-03-14T06:10:04;94701.75;;;9.99;86.36
25855;BME280;13680;49.936;11.344;2023-03-14T06:12:30;94702.25;;;10.05;85.85
25855;BME280;13680;49.936;11.344;2023-03-14T06:14:55;94701.81;;;9.87;85.97
25855;BME280;13680;49.936;11.344;2023-03-14T06:17:20;94703.66;;;10.15;85.12
25855;BME280;13680;49.936;11.344;2023-03-14T06:19:46;94710.94;;;10.14;84.55
25855;BME280;13680;49.936;11.344;2023-03-14T06:22:11;94711.72;;;10.15;84.35
25855;BME280;13680;49.936;11.344;2023-03-14T06:24:37;94706.50;;;10.06;84.65
25855;BME280;13680;49.936;11.344;2023-03-14T06:27:02;94705.94;;;10.13;84.55
25855;BME280;13680;49.936;11.344;2023-03-14T06:29:28;94700.44;;;9.93;85.80
25855;BME280;13680;49.936;11.344;2023-03-14T06:31:54;94709.56;;;10.21;84.64
25855;BME280;13680;49.936;11.344;2023-03-14T06:34:19;94709.13;;;10.19;83.57
25855;BME280;13680;49.936;11.344;2023-03-14T06:36:44;94708.75;;;10.20;84.00
25855;BME280;13680;49.936;11.344;2023-03-14T06:39:10;94714.28;;;9.63;86.00
25855;BME280;13680;49.936;11.344;2023-03-14T06:41:35;94717.06;;;9.83;86.21
25855;BME280;13680;49.936;11.344;2023-03-14T06:44:00;94713.78;;;10.06;84.96
25855;BME280;13680;49.936;11.344;2023-03-14T06:46:26;94723.06;;;10.08;84.68
25855;BME280;13680;49.936;11.344;2023-03-14T06:48:59;94713.59;;;9.98;84.47
25855;BME280;13680;49.936;11.344;2023-03-14T06:51:24;94719.16;;;10.06;84.91
25855;BME280;13680;49.936;11.344;2023-03-14T06:53:50;94721.78;;;10.18;84.08
25855;BME280;13680;49.936;11.344;2023-03-14T06:56:16;94719.13;;;9.90;85.46
25855;BME280;13680;49.936;11.344;2023-03-14T06:58:41;94722.63;;;10.22;83.89
25855;BME280;13680;49.936;11.344;2023-03-14T07:01:17;94717.25;;;9.90;85.00
25855;BME280;13680;49.936;11.344;2023-03-14T07:03:45;94719.44;;;10.01;84.90
25855;BME280;13680;49.936;11.344;2023-03-14T07:06:10;94710.78;;;10.23;84.36
25855;BME280;13680;49.936;11.344;2023-03-14T07:08:35;94715.19;;;10.31;83.66
25855;BME280;13680;49.936;11.344;2023-03-14T07:11:01;94720.22;;;10.49;82.60
25855;BME280;13680;49.936;11.344;2023-03-14T07:13:26;94704.78;;;10.46;82.34
25855;BME280;13680;49.936;11.344;2023-03-14T07:15:51;94723.50;;;10.58;82.12
25855;BME280;13680;49.936;11.344;2023-03-14T07:18:16;94713.69;;;10.34;82.92
25855;BME280;13680;49.936;11.344;2023-03-14T07:20:42;94710.63;;;10.68;81.87
25855;BME280;13680;49.936;11.344;2023-03-14T07:23:09;94713.94;;;10.61;81.33
25855;BME280;13680;49.936;11.344;2023-03-14T07:25:34;94701.91;;;10.90;79.87
25855;BME280;13680;49.936;11.344;2023-03-14T07:28:00;94704.00;;;10.61;80.86
25855;BME280;13680;49.936;11.344;2023-03-14T07:30:25;94704.84;;;10.66;81.06
25855;BME280;13680;49.936;11.344;2023-03-14T07:32:50;94709.78;;;10.63;80.64
25855;BME280;13680;49.936;11.344;2023-03-14T07:35:16;94706.66;;;10.29;81.19
25855;BME280;13680;49.936;11.344;2023-03-14T07:37:41;94703.19;;;10.61;81.11
25855;BME280;13680;49.936;11.344;2023-03-14T07:40:07;94701.72;;;10.63;79.81
25855;BME280;13680;49.936;11.344;2023-03-14T07:42:34;94715.69;;;10.21;82.14
25855;BME280;13680;49.936;11.344;2023-03-14T07:44:59;94706.25;;;10.59;81.00
25855;BME280;13680;49.936;11.344;2023-03-14T07:47:24;94703.56;;;10.59;80.11
25855;BME280;13680;49.936;11.344;2023-03-14T07:49:49;94706.38;;;10.83;79.57
25855;BME280;13680;49.936;11.344;2023-03-14T07:52:15;94714.63;;;10.74;78.56
25855;BME280;13680;49.936;11.344;2023-03-14T07:54:40;94711.66;;;10.79;78.67
25855;BME280;13680;49.936;11.344;2023-03-14T07:57:05;94710.78;;;10.55;78.93
25855;BME280;13680;49.936;11.344;2023-03-14T07:59:31;94724.28;;;10.59;79.81
25855;BME280;13680;49.936;11.344;2023-03-14T08:01:56;94714.66;;;10.58;78.59
25855;BME280;13680;49.936;11.344;2023-03-14T08:04:24;94707.75;;;10.76;79.65
25855;BME280;13680;49.936;11.344;2023-03-14T08:06:50;94709.63;;;10.92;78.97
25855;BME280;13680;49.936;11.344;2023-03-14T08:09:15;94725.50;;;10.61;78.05
25855;BME280;13680;49.936;11.344;2023-03-14T08:11:40;94723.88;;;10.92;78.03
25855;BME280;13680;49.936;11.344;2023-03-14T08:14:06;94708.38;;;11.05;77.12
25855;BME280;13680;49.936;11.344;2023-03-14T08:16:31;94718.78;;;11.26;75.24
25855;BME280;13680;49.936;11.344;2023-03-14T08:18:56;94704.13;;;11.43;74.96
25855;BME280;13680;49.936;11.344;2023-03-14T08:21:22;94703.75;;;11.65;74.89
25855;BME280;13680;49.936;11.344;2023-03-14T08:23:48;94705.06;;;11.32;74.71
25855;BME280;13680;49.936;11.344;2023-03-14T08:26:13;94704.31;;;11.74;74.43
25855;BME280;13680;49.936;11.344;2023-03-14T08:28:38;94707.31;;;11.29;75.12
25855;BME280;13680;49.936;11.344;2023-03-14T08:31:04;94705.31;;;11.89;73.56
25855;BME280;13680;49.936;11.344;2023-03-14T08:33:30;94694.06;;;12.03;73.16
25855;BME280;13680;49.936;11.344;2023-03-14T08:35:58;94706.03;;;11.43;73.76
25855;BME280;13680;49.936;11.344;2023-03-14T08:38:24;94708.84;;;11.70;73.90
25855;BME280;13680;49.936;11.344;2023-03-14T08:40:55;94701.00;;;11.61;73.51
25855;BME280;13680;49.936;11.344;2023-03-14T08:43:20;94701.00;;;11.61;74.29
25855;BME280;13680;49.936;11.344;2023-03-14T08:45:45;94687.31;;;11.70;72.88
25855;BME280;13680;49.936;11.344;2023-03-14T08:48:11;94695.25;;;12.05;71.67
25855;BME280;13680;49.936;11.344;2023-03-14T08:50:36;94689.56;;;12.60;70.25
25855;BME280;13680;49.936;11.344;2023-03-14T08:53:01;94675.31;;;12.10;70.75
25855;BME280;13680;49.936;11.344;2023-03-14T08:55:27;94693.78;;;12.35;69.76
25855;BME280;13680;49.936;11.344;2023-03-14T08:57:53;94682.81;;;12.20;70.33
25855;BME280;13680;49.936;11.344;2023-03-14T09:00:19;94679.50;;;12.57;68.88
25855;BME280;13680;49.936;11.344;2023-03-14T09:02:45;94672.28;;;12.38;70.75
25855;BME280;13680;49.936;11.344;2023-03-14T09:05:11;94675.22;;;12.53;68.77
25855;BME280;13680;49.936;11.344;2023-03-14T09:07:37;94687.13;;;12.25;70.61
25855;BME280;13680;49.936;11.344;2023-03-14T09:10:03;94672.34;;;12.42;70.32
25855;BME280;13680;49.936;11.344;2023-03-14T09:12:28;94667.06;;;12.76;67.43
25855;BME280;13680;49.936;11.344;2023-03-14T09:14:54;94687.19;;;12.82;67.54
25855;BME280;13680;49.936;11.344;2023-03-14T09:17:19;94669.66;;;12.69;67.57
25855;BME280;13680;49.936;11.344;2023-03-14T09:19:44;94673.88;;;12.16;68.79
25855;BME280;13680;49.936;11.344;2023-03-14T09:22:10;94689.22;;;12.12;68.44
25855;BME280;13680;49.936;11.344;2023-03-14T09:24:35;94680.91;;;12.48;68.78
25855;BME280;13680;49.936;11.344;2023-03-14T09:27:00;94689.03;;;12.24;67.90
25855;BME280;13680;49.936;11.344;2023-03-14T09:29:26;94687.56;;;12.31;68.32
25855;BME280;13680;49.936;11.344;2023-03-14T09:31:51;94695.03;;;11.71;70.39
25855;BME280;13680;49.936;11.344;2023-03-14T09:34:17;94700.47;;;11.75;71.91
25855;BME280;13680;49.936;11.344;2023-03-14T09:36:42;94698.31;;;12.04;70.09
25855;BME280;13680;49.936;11.344;2023-03-14T09:39:09;94694.81;;;11.80;72.52
25855;BME280;13680;49.936;11.344;2023-03-14T09:41:37;94712.03;;;11.75;71.57
25855;BME280;13680;49.936;11.344;2023-03-14T09:44:15;94706.91;;;11.47;73.68
25855;BME280;13680;49.936;11.344;2023-03-14T09:46:43;94706.00;;;12.02;71.95
25855;BME280;13680;49.936;11.344;2023-03-14T09:49:27;94710.50;;;11.98;73.70
25855;BME280;13680;49.936;11.344;2023-03-14T09:51:55;94720.06;;;11.52;76.17
25855;BME280;13680;49.936;11.344;2023-03-14T09:57:04;94726.78;;;11.42;77.11
25855;BME280;13680;49.936;11.344;2023-03-14T09:59:31;94731.66;;;11.17;79.20
25855;BME280;13680;49.936;11.344;2023-03-14T10:02:14;94734.31;;;10.62;81.97
25855;BME280;13680;49.936;11.344;2023-03-14T10:04:40;94739.72;;;10.97;82.79
25855;BME280;13680;49.936;11.344;2023-03-14T10:07:18;94735.91;;;11.38;81.68
25855;BME280;13680;49.936;11.344;2023-03-14T10:09:48;94729.34;;;11.16;82.93
25855;BME280;13680;49.936;11.344;2023-03-14T10:12:15;94740.59;;;11.41;82.35
25855;BME280;13680;49.936;11.344;2023-03-14T10:14:47;94733.63;;;11.01;83.49
25855;BME280;13680;49.936;11.344;2023-03-14T10:17:13;94738.81;;;11.09;84.41
25855;BME280;13680;49.936;11.344;2023-03-14T10:22:16;94726.56;;;10.92;85.57
25855;BME280;13680;49.936;11.344;2023-03-14T10:24:46;94725.84;;;10.95;84.61
25855;BME280;13680;49.936;11.344;2023-03-14T10:27:20;94721.41;;;11.42;84.00
25855;BME280;13680;49.936;11.344;2023-03-14T10:29:59;94723.25;;;11.58;83.60
25855;BME280;13680;49.936;11.344;2023-03-14T10:32:34;94724.72;;;11.55;82.00
25855;BME280;13680;49.936;11.344;2023-03-14T10:35:21;94729.34;;;11.55;82.72
25855;BME280;13680;49.936;11.344;2023-03-14T10:37:52;94725.34;;;11.68;83.76
25855;BME280;13680;49.936;11.344;2023-03-14T10:40:20;94730.03;;;11.71;82.13
25855;BME280;13680;49.936;11.344;2023-03-14T10:42:49;94729.38;;;11.98;80.45
25855;BME280;13680;49.936;11.344;2023-03-14T10:45:30;94731.94;;;11.71;79.43
25855;BME280;13680;49.936;11.344;2023-03-14T10:53:21;94730.41;;;11.50;81.06
25855;BME280;13680;49.936;11.344;2023-03-14T10:55:47;94728.63;;;11.58;79.51
25855;BME280;13680;49.936;11.344;2023-03-14T10:58:22;94725.75;;;11.47;80.52
25855;BME280;13680;49.936;11.344;2023-03-14T11:03:48;94726.84;;;11.85;79.39
25855;BME280;13680;49.936;11.344;2023-03-14T11:06:19;94727.53;;;12.02;77.67
25855;BME280;13680;49.936;11.344;2023-03-14T11:08:53;94725.84;;;12.17;77.00
25855;BME280;13680;49.936;11.344;2023-03-14T11:11:24;94715.78;;;11.71;76.55
25855;BME280;13680;49.936;11.344;2023-03-14T11:16:33;94719.56;;;11.66;76.07
25855;BME280;13680;49.936;11.344;2023-03-14T11:19:20;94714.06;;;12.02;74.72
25855;BME280;13680;49.936;11.344;2023-03-14T11:21:55;94720.47;;;11.74;75.56
25855;BME280;13680;49.936;11.344;2023-03-14T11:25:18;94712.88;;;11.79;76.41
25855;BME280;13680;49.936;11.344;2023-03-14T11:27:23;94709.06;;;12.27;75.76
25855;BME280;13680;49.936;11.344;2023-03-14T11:29:55;94706.56;;;12.38;75.71
25855;BME280;13680;49.936;11.344;2023-03-14T11:32:41;94712.94;;;12.26;73.48
25855;BME280;13680;49.936;11.344;2023-03-14T11:35:36;94697.06;;;12.48;72.54
25855;BME280;13680;49.936;11.344;2023-03-14T11:40:40;94694.53;;;12.58;73.44
25855;BME280;13680;49.936;11.344;2023-03-14T11:43:13;94687.94;;;12.83;73.27
25855;BME280;13680;49.936;11.344;2023-03-14T11:45:42;94677.00;;;12.99;72.67
25855;BME280;13680;49.936;11.344;2023-03-14T11:48:15;94677.50;;;13.08;71.42
25855;BME280;13680;49.936;11.344;2023-03-14T11:50:44;94676.72;;;12.77;70.25
25855;BME280;13680;49.936;11.344;2023-03-14T11:55:59;94667.16;;;12.56;70.52
25855;BME280;13680;49.936;11.344;2023-03-14T11:58:27;94668.25;;;12.52;70.42
25855;BME280;13680;49.936;11.344;2023-03-14T12:00:56;94658.66;;;12.81;69.37
25855;BME280;13680;49.936;11.344;2023-03-14T12:06:13;94666.91;;;12.96;68.14
25855;BME280;13680;49.936;11.344;2023-03-14T12:08:52;94658.84;;;13.30;68.37
25855;BME280;13680;49.936;11.344;2023-03-14T12:11:43;94652.25;;;13.57;66.44
25855;BME280;13680;49.936;11.344;2023-03-14T12:14:29;94650.91;;;13.78;65.52
25855;BME280;13680;49.936;11.344;2023-03-14T12:17:04;94647.72;;;13.69;66.81
25855;BME280;13680;49.936;11.344;2023-03-14T12:19:32;94646.16;;;13.68;66.44
25855;BME280;13680;49.936;11.344;2023-03-14T12:22:18;94647.66;;;13.62;65.22
25855;BME280;13680;49.936;11.344;2023-03-14T12:24:50;94644.94;;;13.27;65.47
25855;BME280;13680;49.936;11.344;2023-03-14T12:30:32;94638.59;;;13.84;66.59
25855;BME280;13680;49.936;11.344;2023-03-14T12:35:43;94631.75;;;13.98;63.64
25855;BME280;13680;49.936;11.344;2023-03-14T12:38:15;94630.66;;;14.02;63.79
25855;BME280;13680;49.936;11.344;2023-03-14T12:43:50;94627.69;;;13.73;63.00
25855;BME280;13680;49.936;11.344;2023-03-14T12:46:26;94622.56;;;14.06;63.73
25855;BME280;13680;49.936;11.344;2023-03-14T12:51:37;94625.56;;;13.94;63.59
25855;BME280;13680;49.936;11.344;2023-03-14T12:57:08;94628.41;;;13.67;64.85
25855;BME280;13680;49.936;11.344;2023-03-14T13:02:58;94623.69;;;13.56;64.65
25855;BME280;13680;49.936;11.344;2023-03-14T13:10:28;94604.97;;;14.27;61.81
25855;BME280;13680;49.936;11.344;2023-03-14T13:13:15;94617.06;;;14.47;61.01
25855;BME280;13680;49.936;11.344;2023-03-14T13:15:44;94629.13;;;13.60;63.17
25855;BME280;13680;49.936;11.344;2023-03-14T13:18:16;94637.28;;;13.67;65.38
25855;BME280;13680;49.936;11.344;2023-03-14T13:20:45;94655.31;;;12.34;70.14
25855;BME280;13680;49.936;11.344;2023-03-14T13:23:22;94655.25;;;11.84;76.00
25855;BME280;13680;49.936;11.344;2023-03-14T13:25:47;94646.06;;;11.85;75.38
25855;BME280;13680;49.936;11.344;2023-03-14T13:28:14;94648.97;;;11.34;80.11
25855;BME280;13680;49.936;11.344;2023-03-14T13:30:43;94652.66;;;11.45;80.56
25855;BME280;13680;49.936;11.344;2023-03-14T13:33:14;94656.19;;;11.49;80.75
25855;BME280;13680;49.936;11.344;2023-03-14T13:35:43;94660.50;;;11.54;82.09
25855;BME280;13680;49.936;11.344;2023-03-14T13:38:16;94666.59;;;11.31;82.77
25855;BME280;13680;49.936;11.344;2023-03-14T13:40:43;94667.81;;;11.53;81.03
25855;BME280;13680;49.936;11.344;2023-03-14T13:43:19;94671.16;;;11.27;82.68
25855;BME280;13680;49.936;11.344;2023-03-14T13:46:03;94675.19;;;11.17;83.78
25855;BME280;13680;49.936;11.344;2023-03-14T13:48:31;94677.44;;;11.35;83.25